Antwerp, OH

5:02 PM EDT on September 20, 2014 (GMT -0400)
Tom Kneubuhler, Woodburn, In | Change Station
CLOSE
Current Station
Personal Weather Station
Location: Woodburn, IN
Elevation: 751 ft
Nearby Weather Stations

Elev 751 ft 41.18 °N, 84.84 °W | Updated 12 minutes ago

Clear
Clear
80.2 °F
Feels Like 82 °F
N
2.0
Wind Variable Wind from SSW
Gusts 7.0 mph

Today
High -- | Low -- °F
--% Chance of Precip.
Yesterday
High -- | Low -- °F
Precip. -- in
7:24 AM 7:39 PM
Waning Crescent, 10% visible
Pressure 29.84 in
Visibility 10.0 miles
Clouds Clear
Heat Index 82 °F
Dew Point 65 °F
Humidity 60%
Rainfall 0.00 in
Snow Depth Not available.
UV 3 out of 12
Pollen 6.10 out of 12
Air Quality Not available.
Flu Activity Not available.
METAR KGWB 202055Z AUTO 22010G15KT 10SM CLR 26/15 A2984 RMK AO2

More Conditions Fewer Conditions

Pressure 29.84 in
Visibility 10.0 miles
Clouds Clear
Heat Index 82 °F
Dew Point 65 °F
Humidity 60%
Rainfall 0.00 in
Snow Depth Not available.
UV 3 out of 12
Pollen 6.10 out of 12
Air Quality Not available.
Flu Activity Not available.
METAR KGWB 202055Z AUTO 22010G15KT 10SM CLR 26/15 A2984 RMK AO2

More Conditions Fewer Conditions

10-Day Weather Forecast

Almanac

Astronomy

Sep. 20, 2014 Rise Set
Actual Time 7:24 AM EDT 7:39 PM EDT
Civil Twilight 6:56 AM EDT 8:07 PM EDT
Nautical Twilight 6:24 AM EDT 8:39 PM EDT
Astronomical Twilight 5:51 AM EDT 9:12 PM EDT
Moon 4:01 AM EDT 5:43 PM EDT
Length of Visible Light 13h 10m
Length of Day
12h 15m
Tomorrow will be 2m 43s shorter.
Waning Crescent, 10% of the Moon is Illuminated
Today
Waning Crescent
Sep 24
New
Oct 1
First Quarter
Oct 8
Full
Oct 15
Last Quarter

Today's Extremes

State Highs State Lows

Community

WunderPhotos

Upload Photos

1,754,947 photos uploaded!

WunderBlogs® & News

Nearby

Snow Depth

Station Depth Elevation
No new snow has been reported.

Earthquake Activity

City Distance Mag. Time & Date
No recent earthquake activity has been reported nearby.
Minimum magnitude displayed is 2.5.

Coastal Water Temperatures

Place Temperature
No Stations Reporting

Nearby Weather Stations